sensor_id;sensor_type;location;lat;lon;timestamp;pressure;altitude;pressure_sealevel;temperature;humidity
50592;BME280;36548;50.506;30.834;2023-04-19T00:01:00;99999.53;;;10.63;48.05
50592;BME280;36548;50.506;30.834;2023-04-19T00:02:16;99993.84;;;10.67;48.31
50592;BME280;36548;50.506;30.834;2023-04-19T00:03:27;99992.55;;;10.60;48.33
50592;BME280;36548;50.506;30.834;2023-04-19T00:04:40;100000.59;;;10.60;48.30
50592;BME280;36548;50.506;30.834;2023-04-19T00:05:49;99990.41;;;10.52;48.56
50592;BME280;36548;50.506;30.834;2023-04-19T00:07:07;99990.30;;;10.67;48.39
50592;BME280;36548;50.506;30.834;2023-04-19T00:08:16;99991.81;;;10.58;48.46
50592;BME280;36548;50.506;30.834;2023-04-19T00:09:31;99988.06;;;10.73;48.05
50592;BME280;36548;50.506;30.834;2023-04-19T00:10:41;99993.20;;;10.64;47.93
50592;BME280;36548;50.506;30.834;2023-04-19T00:11:56;99994.05;;;10.77;47.91
50592;BME280;36548;50.506;30.834;2023-04-19T00:13:06;99990.41;;;10.65;48.05
50592;BME280;36548;50.506;30.834;2023-04-19T00:14:15;99997.06;;;10.60;48.01
50592;BME280;36548;50.506;30.834;2023-04-19T00:15:24;99997.47;;;10.53;48.16
50592;BME280;36548;50.506;30.834;2023-04-19T00:16:34;99997.70;;;10.63;47.79
50592;BME280;36548;50.506;30.834;2023-04-19T00:17:44;99993.20;;;10.64;47.83
50592;BME280;36548;50.506;30.834;2023-04-19T00:18:53;99992.10;;;10.53;47.98
50592;BME280;36548;50.506;30.834;2023-04-19T00:20:04;99996.41;;;10.56;48.10
50592;BME280;36548;50.506;30.834;2023-04-19T00:21:14;99985.15;;;10.51;48.03
50592;BME280;36548;50.506;30.834;2023-04-19T00:22:25;99979.34;;;10.44;48.39
50592;BME280;36548;50.506;30.834;2023-04-19T00:23:40;99989.75;;;10.62;48.14
50592;BME280;36548;50.506;30.834;2023-04-19T00:24:50;99985.04;;;10.52;48.27
50592;BME280;36548;50.506;30.834;2023-04-19T00:26:03;99982.55;;;10.49;48.17
50592;BME280;36548;50.506;30.834;2023-04-19T00:27:19;99979.78;;;10.64;48.14
50592;BME280;36548;50.506;30.834;2023-04-19T00:28:29;99980.08;;;10.46;48.37
50592;BME280;36548;50.506;30.834;2023-04-19T00:29:38;99982.20;;;10.41;48.49
50592;BME280;36548;50.506;30.834;2023-04-19T00:30:54;99975.16;;;10.53;48.35
50592;BME280;36548;50.506;30.834;2023-04-19T00:32:03;99987.28;;;10.46;48.50
50592;BME280;36548;50.506;30.834;2023-04-19T00:33:20;99975.05;;;10.54;48.51
50592;BME280;36548;50.506;30.834;2023-04-19T00:34:31;99972.57;;;10.38;48.54
50592;BME280;36548;50.506;30.834;2023-04-19T00:35:47;99978.69;;;10.53;48.59
50592;BME280;36548;50.506;30.834;2023-04-19T00:36:58;99979.26;;;10.31;48.83
50592;BME280;36548;50.506;30.834;2023-04-19T00:38:07;99974.88;;;10.30;49.06
50592;BME280;36548;50.506;30.834;2023-04-19T00:39:20;99975.62;;;10.32;49.12
50592;BME280;36548;50.506;30.834;2023-04-19T00:40:30;99975.62;;;10.32;49.19
50592;BME280;36548;50.506;30.834;2023-04-19T00:41:42;99983.11;;;10.27;49.15
50592;BME280;36548;50.506;30.834;2023-04-19T00:42:58;99971.28;;;10.44;49.22
50592;BME280;36548;50.506;30.834;2023-04-19T00:44:08;99980.25;;;10.30;49.17
50592;BME280;36548;50.506;30.834;2023-04-19T00:45:17;99972.09;;;10.32;49.31
50592;BME280;36548;50.506;30.834;2023-04-19T00:46:32;99967.46;;;10.34;49.44
50592;BME280;36548;50.506;30.834;2023-04-19T00:47:41;99971.86;;;10.22;49.51
50592;BME280;36548;50.506;30.834;2023-04-19T00:48:52;99968.11;;;10.24;49.49
50592;BME280;36548;50.506;30.834;2023-04-19T00:50:11;99968.45;;;10.33;49.36
50592;BME280;36548;50.506;30.834;2023-04-19T00:51:20;99969.06;;;10.23;49.52
50592;BME280;36548;50.506;30.834;2023-04-19T00:52:31;99975.38;;;10.22;49.65
50592;BME280;36548;50.506;30.834;2023-04-19T00:53:42;99968.50;;;10.18;49.69
50592;BME280;36548;50.506;30.834;2023-04-19T00:54:52;99959.84;;;10.28;49.50
50592;BME280;36548;50.506;30.834;2023-04-19T00:56:10;99959.56;;;10.45;49.40
50592;BME280;36548;50.506;30.834;2023-04-19T00:57:21;99960.91;;;10.25;49.60
50592;BME280;36548;50.506;30.834;2023-04-19T00:58:37;99955.08;;;10.46;49.27
50592;BME280;36548;50.506;30.834;2023-04-19T00:59:48;99958.67;;;10.32;49.50
50592;BME280;36548;50.506;30.834;2023-04-19T01:00:57;99953.60;;;10.27;49.47
50592;BME280;36548;50.506;30.834;2023-04-19T01:02:35;99949.27;;;10.39;49.50
50592;BME280;36548;50.506;30.834;2023-04-19T01:03:45;99950.84;;;10.29;49.46
50592;BME280;36548;50.506;30.834;2023-04-19T01:05:01;99949.59;;;10.34;49.80
50592;BME280;36548;50.506;30.834;2023-04-19T01:06:11;99949.41;;;10.23;49.88
50592;BME280;36548;50.506;30.834;2023-04-19T01:07:23;99952.02;;;10.24;49.85
50592;BME280;36548;50.506;30.834;2023-04-19T01:08:39;99948.45;;;10.24;50.21
50592;BME280;36548;50.506;30.834;2023-04-19T01:09:48;99949.09;;;10.15;50.36
50592;BME280;36548;50.506;30.834;2023-04-19T01:11:04;99947.94;;;10.32;50.32
50592;BME280;36548;50.506;30.834;2023-04-19T01:12:15;99939.95;;;10.17;50.43
50592;BME280;36548;50.506;30.834;2023-04-19T01:13:24;99951.33;;;10.08;50.64
50592;BME280;36548;50.506;30.834;2023-04-19T01:14:35;99942.30;;;10.09;50.59
50592;BME280;36548;50.506;30.834;2023-04-19T01:15:45;99951.78;;;10.15;50.41
50592;BME280;36548;50.506;30.834;2023-04-19T01:16:56;99952.52;;;10.17;50.45
50592;BME280;36548;50.506;30.834;2023-04-19T01:18:08;99947.71;;;10.22;50.46
50592;BME280;36548;50.506;30.834;2023-04-19T01:19:23;99947.54;;;10.38;50.06
50592;BME280;36548;50.506;30.834;2023-04-19T01:20:33;99952.42;;;10.31;50.16
50592;BME280;36548;50.506;30.834;2023-04-19T01:21:42;99951.35;;;10.21;50.43
50592;BME280;36548;50.506;30.834;2023-04-19T01:22:53;99942.98;;;10.26;50.20
50592;BME280;36548;50.506;30.834;2023-04-19T01:24:02;99949.33;;;10.24;50.30
50592;BME280;36548;50.506;30.834;2023-04-19T01:25:12;99949.41;;;10.23;50.33
50592;BME280;36548;50.506;30.834;2023-04-19T01:26:28;99947.84;;;10.33;50.41
50592;BME280;36548;50.506;30.834;2023-04-19T01:27:37;99951.80;;;10.28;50.33
50592;BME280;36548;50.506;30.834;2023-04-19T01:28:47;99951.91;;;10.26;50.42
50592;BME280;36548;50.506;30.834;2023-04-19T01:29:57;99949.67;;;10.33;50.28
50592;BME280;36548;50.506;30.834;2023-04-19T01:31:07;99947.92;;;10.19;50.57
50592;BME280;36548;50.506;30.834;2023-04-19T01:32:18;99949.52;;;10.21;50.62
50592;BME280;36548;50.506;30.834;2023-04-19T01:33:33;99952.91;;;10.38;50.34
50592;BME280;36548;50.506;30.834;2023-04-19T01:34:42;99946.31;;;10.16;50.65
50592;BME280;36548;50.506;30.834;2023-04-19T01:35:52;99942.64;;;10.17;50.74
50592;BME280;36548;50.506;30.834;2023-04-19T01:37:01;99946.65;;;10.24;50.59
50592;BME280;36548;50.506;30.834;2023-04-19T01:38:16;99944.59;;;10.28;50.70
50592;BME280;36548;50.506;30.834;2023-04-19T01:39:26;99947.05;;;10.18;50.73
50592;BME280;36548;50.506;30.834;2023-04-19T01:40:42;99942.69;;;10.30;50.65
50592;BME280;36548;50.506;30.834;2023-04-19T01:41:51;99942.23;;;10.23;50.57
50592;BME280;36548;50.506;30.834;2023-04-19T01:43:01;99946.59;;;10.12;50.94
50592;BME280;36548;50.506;30.834;2023-04-19T01:44:10;99942.11;;;10.12;51.02
50592;BME280;36548;50.506;30.834;2023-04-19T01:45:26;99939.56;;;10.23;50.91
50592;BME280;36548;50.506;30.834;2023-04-19T01:46:36;99940.06;;;10.16;50.82
50592;BME280;36548;50.506;30.834;2023-04-19T01:47:55;99934.25;;;10.09;50.84
50592;BME280;36548;50.506;30.834;2023-04-19T01:49:03;99944.58;;;10.15;50.68
50592;BME280;36548;50.506;30.834;2023-04-19T01:50:26;99938.17;;;10.31;50.50
50592;BME280;36548;50.506;30.834;2023-04-19T01:51:37;99936.86;;;10.11;50.87
50592;BME280;36548;50.506;30.834;2023-04-19T01:52:47;99938.77;;;10.09;51.07
50592;BME280;36548;50.506;30.834;2023-04-19T01:53:58;99933.30;;;10.10;51.13
50592;BME280;36548;50.506;30.834;2023-04-19T01:55:08;99934.70;;;10.16;50.82
50592;BME280;36548;50.506;30.834;2023-04-19T01:56:23;99933.65;;;10.31;50.64
50592;BME280;36548;50.506;30.834;2023-04-19T01:57:34;99933.97;;;10.27;50.31
50592;BME280;36548;50.506;30.834;2023-04-19T01:58:57;99922.66;;;10.36;50.35
50592;BME280;36548;50.506;30.834;2023-04-19T02:00:08;99929.16;;;10.19;50.67
50592;BME280;36548;50.506;30.834;2023-04-19T02:01:23;99930.55;;;10.24;50.45
50592;BME280;36548;50.506;30.834;2023-04-19T02:02:35;99933.31;;;10.23;50.46
50592;BME280;36548;50.506;30.834;2023-04-19T02:03:45;99937.21;;;10.32;50.21
50592;BME280;36548;50.506;30.834;2023-04-19T02:04:56;99932.36;;;10.24;50.40
50592;BME280;36548;50.506;30.834;2023-04-19T02:06:10;99933.96;;;10.14;50.83
50592;BME280;36548;50.506;30.834;2023-04-19T02:07:20;99925.91;;;10.14;50.70
50592;BME280;36548;50.506;30.834;2023-04-19T02:08:29;99924.08;;;10.14;50.85
50592;BME280;36548;50.506;30.834;2023-04-19T02:09:45;99920.34;;;10.30;50.90
50592;BME280;36548;50.506;30.834;2023-04-19T02:10:54;99930.95;;;10.18;50.93
50592;BME280;36548;50.506;30.834;2023-04-19T02:12:10;99917.33;;;10.21;50.87
50592;BME280;36548;50.506;30.834;2023-04-19T02:13:19;99923.52;;;10.09;50.80
50592;BME280;36548;50.506;30.834;2023-04-19T02:14:36;99911.45;;;10.29;50.54
50592;BME280;36548;50.506;30.834;2023-04-19T02:15:45;99921.83;;;10.08;50.89
50592;BME280;36548;50.506;30.834;2023-04-19T02:16:55;99910.87;;;9.98;51.21
50592;BME280;36548;50.506;30.834;2023-04-19T02:18:05;99918.70;;;10.01;51.25
50592;BME280;36548;50.506;30.834;2023-04-19T02:19:15;99913.02;;;10.06;51.04
50592;BME280;36548;50.506;30.834;2023-04-19T02:20:30;99915.41;;;10.11;51.28
50592;BME280;36548;50.506;30.834;2023-04-19T02:21:40;99924.27;;;9.98;51.37
50592;BME280;36548;50.506;30.834;2023-04-19T02:22:50;99916.58;;;10.06;51.12
50592;BME280;36548;50.506;30.834;2023-04-19T02:24:06;99917.66;;;10.17;51.05
50592;BME280;36548;50.506;30.834;2023-04-19T02:25:16;99913.89;;;10.06;50.94
50592;BME280;36548;50.506;30.834;2023-04-19T02:26:33;99908.20;;;10.11;51.12
50592;BME280;36548;50.506;30.834;2023-04-19T02:27:41;99917.91;;;9.86;51.54
50592;BME280;36548;50.506;30.834;2023-04-19T02:28:57;99911.20;;;10.06;51.30
50592;BME280;36548;50.506;30.834;2023-04-19T02:30:07;99917.80;;;9.88;51.45
50592;BME280;36548;50.506;30.834;2023-04-19T02:31:17;99920.23;;;9.78;51.73
50592;BME280;36548;50.506;30.834;2023-04-19T02:32:33;99912.98;;;9.93;51.76
50592;BME280;36548;50.506;30.834;2023-04-19T02:33:42;99917.16;;;9.84;51.68
50592;BME280;36548;50.506;30.834;2023-04-19T02:34:53;99924.22;;;9.85;51.46
50592;BME280;36548;50.506;30.834;2023-04-19T02:36:03;99927.22;;;9.81;51.68
50592;BME280;36548;50.506;30.834;2023-04-19T02:37:14;99921.30;;;9.76;51.74
50592;BME280;36548;50.506;30.834;2023-04-19T02:38:29;99913.48;;;9.85;51.75
50592;BME280;36548;50.506;30.834;2023-04-19T02:39:39;99912.96;;;9.80;51.73
50592;BME280;36548;50.506;30.834;2023-04-19T02:40:55;99911.27;;;9.92;51.40
50592;BME280;36548;50.506;30.834;2023-04-19T02:42:05;99923.79;;;9.79;51.59
50592;BME280;36548;50.506;30.834;2023-04-19T02:43:14;99923.44;;;9.70;51.68
50592;BME280;36548;50.506;30.834;2023-04-19T02:44:24;99926.76;;;9.74;51.80
50592;BME280;36548;50.506;30.834;2023-04-19T02:45:34;99916.45;;;9.68;51.81
50592;BME280;36548;50.506;30.834;2023-04-19T02:46:53;99912.64;;;9.85;51.53
50592;BME280;36548;50.506;30.834;2023-04-19T02:48:04;99926.47;;;9.79;51.36
50592;BME280;36548;50.506;30.834;2023-04-19T02:49:21;99909.02;;;9.86;51.29
50592;BME280;36548;50.506;30.834;2023-04-19T02:50:31;99931.66;;;9.67;51.57
50592;BME280;36548;50.506;30.834;2023-04-19T02:52:07;99922.91;;;9.78;51.59
50592;BME280;36548;50.506;30.834;2023-04-19T02:53:18;99930.39;;;9.73;51.58
50592;BME280;36548;50.506;30.834;2023-04-19T02:54:28;99925.37;;;9.81;51.23
50592;BME280;36548;50.506;30.834;2023-04-19T02:55:44;99920.69;;;9.85;51.40
50592;BME280;36548;50.506;30.834;2023-04-19T02:56:56;99933.95;;;9.73;51.57
50592;BME280;36548;50.506;30.834;2023-04-19T02:58:12;99924.03;;;9.88;51.36
50592;BME280;36548;50.506;30.834;2023-04-19T02:59:25;99930.00;;;9.79;51.15
50592;BME280;36548;50.506;30.834;2023-04-19T03:00:36;99938.99;;;9.78;51.29
50592;BME280;36548;50.506;30.834;2023-04-19T03:01:52;99927.11;;;9.82;51.60
50592;BME280;36548;50.506;30.834;2023-04-19T03:03:01;99933.17;;;9.71;51.50
50592;BME280;36548;50.506;30.834;2023-04-19T03:04:19;99927.35;;;9.92;51.21
50592;BME280;36548;50.506;30.834;2023-04-19T03:05:28;99933.42;;;9.81;51.19
50592;BME280;36548;50.506;30.834;2023-04-19T03:06:38;99931.63;;;9.82;50.88
50592;BME280;36548;50.506;30.834;2023-04-19T03:07:53;99919.52;;;9.89;50.95
50592;BME280;36548;50.506;30.834;2023-04-19T03:09:02;99927.81;;;9.71;51.24
50592;BME280;36548;50.506;30.834;2023-04-19T03:10:18;99922.77;;;9.67;51.47
50592;BME280;36548;50.506;30.834;2023-04-19T03:11:28;99932.75;;;9.65;51.47
50592;BME280;36548;50.506;30.834;2023-04-19T03:12:43;99925.80;;;9.75;51.38
50592;BME280;36548;50.506;30.834;2023-04-19T03:13:53;99926.65;;;9.76;51.00
50592;BME280;36548;50.506;30.834;2023-04-19T03:15:02;99931.16;;;9.75;50.91
50592;BME280;36548;50.506;30.834;2023-04-19T03:16:17;99925.30;;;9.83;50.93
50592;BME280;36548;50.506;30.834;2023-04-19T03:17:28;99930.50;;;9.71;51.06
50592;BME280;36548;50.506;30.834;2023-04-19T03:18:37;99928.84;;;9.83;50.63
50592;BME280;36548;50.506;30.834;2023-04-19T03:19:52;99915.89;;;9.90;50.88
50592;BME280;36548;50.506;30.834;2023-04-19T03:21:04;99923.27;;;9.86;50.71
50592;BME280;36548;50.506;30.834;2023-04-19T03:22:22;99919.55;;;10.02;50.44
50592;BME280;36548;50.506;30.834;2023-04-19T03:23:30;99922.33;;;10.00;50.20
50592;BME280;36548;50.506;30.834;2023-04-19T03:24:41;99924.80;;;10.03;50.09
50592;BME280;36548;50.506;30.834;2023-04-19T03:25:52;99916.73;;;9.90;50.10
50592;BME280;36548;50.506;30.834;2023-04-19T03:27:08;99914.73;;;10.07;50.29
50592;BME280;36548;50.506;30.834;2023-04-19T03:28:18;99906.25;;;10.00;50.09
50592;BME280;36548;50.506;30.834;2023-04-19T03:29:35;99910.16;;;10.22;49.90
50592;BME280;36548;50.506;30.834;2023-04-19T03:30:47;99919.90;;;10.23;49.69
50592;BME280;36548;50.506;30.834;2023-04-19T03:32:02;99909.83;;;10.27;49.33
50592;BME280;36548;50.506;30.834;2023-04-19T03:33:14;99920.23;;;10.18;49.50
50592;BME280;36548;50.506;30.834;2023-04-19T03:34:28;99913.80;;;10.21;49.68
50592;BME280;36548;50.506;30.834;2023-04-19T03:35:38;99917.87;;;10.14;49.61
50592;BME280;36548;50.506;30.834;2023-04-19T03:36:49;99914.12;;;10.16;49.49
50592;BME280;36548;50.506;30.834;2023-04-19T03:37:59;99910.78;;;10.26;49.18
50592;BME280;36548;50.506;30.834;2023-04-19T03:39:09;99908.00;;;10.27;49.11
50592;BME280;36548;50.506;30.834;2023-04-19T03:40:20;99912.95;;;10.33;49.07
50592;BME280;36548;50.506;30.834;2023-04-19T03:41:35;99902.03;;;10.49;48.83
50592;BME280;36548;50.506;30.834;2023-04-19T03:42:47;99910.85;;;10.51;48.60
50592;BME280;36548;50.506;30.834;2023-04-19T03:44:02;99899.48;;;10.61;48.57
50592;BME280;36548;50.506;30.834;2023-04-19T03:45:11;99915.16;;;10.54;48.57
50592;BME280;36548;50.506;30.834;2023-04-19T03:46:26;99909.02;;;10.52;48.41
50592;BME280;36548;50.506;30.834;2023-04-19T03:47:37;99910.53;;;10.43;48.29
50592;BME280;36548;50.506;30.834;2023-04-19T03:48:47;99918.36;;;10.46;48.33
50592;BME280;36548;50.506;30.834;2023-04-19T03:49:56;99919.13;;;10.48;48.15
50592;BME280;36548;50.506;30.834;2023-04-19T03:51:06;99916.73;;;10.44;48.19
50592;BME280;36548;50.506;30.834;2023-04-19T03:52:15;99915.86;;;10.30;48.98
50592;BME280;36548;50.506;30.834;2023-04-19T03:53:31;99907.81;;;10.30;49.13
50592;BME280;36548;50.506;30.834;2023-04-19T03:54:41;99916.16;;;10.26;48.96
50592;BME280;36548;50.506;30.834;2023-04-19T03:55:52;99914.45;;;10.24;48.72
50592;BME280;36548;50.506;30.834;2023-04-19T03:57:03;99913.80;;;10.21;48.97
50592;BME280;36548;50.506;30.834;2023-04-19T03:58:13;99909.34;;;10.34;48.69
50592;BME280;36548;50.506;30.834;2023-04-19T03:59:25;99916.98;;;10.13;48.97
50592;BME280;36548;50.506;30.834;2023-04-19T04:00:40;99910.67;;;10.27;48.88
50592;BME280;36548;50.506;30.834;2023-04-19T04:01:48;99908.37;;;9.95;49.33
50592;BME280;36548;50.506;30.834;2023-04-19T04:03:03;99913.34;;;10.14;49.09
50592;BME280;36548;50.506;30.834;2023-04-19T04:04:24;99904.44;;;10.01;49.12
50592;BME280;36548;50.506;30.834;2023-04-19T04:05:34;99906.80;;;10.05;48.99
50592;BME280;36548;50.506;30.834;2023-04-19T04:06:45;99913.09;;;9.92;49.29
50592;BME280;36548;50.506;30.834;2023-04-19T04:07:56;99902.27;;;9.93;49.28
50592;BME280;36548;50.506;30.834;2023-04-19T04:09:08;99909.88;;;9.99;49.17
50592;BME280;36548;50.506;30.834;2023-04-19T04:10:17;99904.04;;;9.80;49.59
50592;BME280;36548;50.506;30.834;2023-04-19T04:11:32;99903.00;;;9.95;49.64
50592;BME280;36548;50.506;30.834;2023-04-19T04:12:41;99908.08;;;10.00;49.13
50592;BME280;36548;50.506;30.834;2023-04-19T04:13:57;99901.88;;;10.12;49.26
50592;BME280;36548;50.506;30.834;2023-04-19T04:15:10;99907.43;;;10.09;49.48
50592;BME280;36548;50.506;30.834;2023-04-19T04:16:23;99900.85;;;10.53;48.36
50592;BME280;36548;50.506;30.834;2023-04-19T04:17:39;99905.69;;;10.87;47.91
50592;BME280;36548;50.506;30.834;2023-04-19T04:18:49;99908.45;;;10.85;47.46
50592;BME280;36548;50.506;30.834;2023-04-19T04:19:58;99903.17;;;11.09;46.92
50592;BME280;36548;50.506;30.834;2023-04-19T04:21:08;99903.08;;;11.35;46.13
50592;BME280;36548;50.506;30.834;2023-04-19T04:22:23;99891.20;;;11.75;45.51
50592;BME280;36548;50.506;30.834;2023-04-19T04:23:34;99905.33;;;11.90;45.17
50592;BME280;36548;50.506;30.834;2023-04-19T04:24:49;99898.97;;;12.15;44.56
50592;BME280;36548;50.506;30.834;2023-04-19T04:26:06;99905.95;;;12.18;44.41
50592;BME280;36548;50.506;30.834;2023-04-19T04:27:22;99909.09;;;12.11;44.51
50592;BME280;36548;50.506;30.834;2023-04-19T04:28:33;99900.20;;;12.22;44.13
50592;BME280;36548;50.506;30.834;2023-04-19T04:29:42;99899.25;;;12.35;44.31
50592;BME280;36548;50.506;30.834;2023-04-19T04:31:00;99891.95;;;12.59;43.99
50592;BME280;36548;50.506;30.834;2023-04-19T04:32:11;99890.34;;;12.45;43.70
50592;BME280;36548;50.506;30.834;2023-04-19T04:33:28;99890.11;;;12.71;43.68
50592;BME280;36548;50.506;30.834;2023-04-19T04:34:38;99891.95;;;12.48;43.80
50592;BME280;36548;50.506;30.834;2023-04-19T04:35:54;99880.34;;;12.70;44.34
50592;BME280;36548;50.506;30.834;2023-04-19T04:37:05;99890.36;;;12.68;44.13
50592;BME280;36548;50.506;30.834;2023-04-19T04:38:22;99884.13;;;12.79;44.58
50592;BME280;36548;50.506;30.834;2023-04-19T04:39:33;99896.24;;;12.62;44.56
50592;BME280;36548;50.506;30.834;2023-04-19T04:40:53;99893.55;;;12.85;44.63
50592;BME280;36548;50.506;30.834;2023-04-19T04:42:02;99893.05;;;12.79;44.74
50592;BME280;36548;50.506;30.834;2023-04-19T04:43:12;99896.72;;;12.67;44.85
50592;BME280;36548;50.506;30.834;2023-04-19T04:44:39;99886.94;;;12.89;45.13
50592;BME280;36548;50.506;30.834;2023-04-19T04:45:49;99894.40;;;12.85;44.85
50592;BME280;36548;50.506;30.834;2023-04-19T04:47:05;99888.63;;;13.12;44.60
50592;BME280;36548;50.506;30.834;2023-04-19T04:48:16;99902.98;;;12.90;44.31
50592;BME280;36548;50.506;30.834;2023-04-19T04:49:25;99899.31;;;12.80;44.95
50592;BME280;36548;50.506;30.834;2023-04-19T04:50:40;99892.06;;;13.03;44.85
50592;BME280;36548;50.506;30.834;2023-04-19T04:51:51;99901.75;;;12.94;45.15
50592;BME280;36548;50.506;30.834;2023-04-19T04:53:01;99900.02;;;13.05;45.35
50592;BME280;36548;50.506;30.834;2023-04-19T04:54:16;99899.91;;;13.18;44.75
50592;BME280;36548;50.506;30.834;2023-04-19T04:55:27;99900.27;;;13.02;44.65
50592;BME280;36548;50.506;30.834;2023-04-19T04:56:42;99897.95;;;13.08;44.78
50592;BME280;36548;50.506;30.834;2023-04-19T04:57:51;99897.20;;;12.95;43.99
50592;BME280;36548;50.506;30.834;2023-04-19T04:59:05;99899.56;;;12.88;44.64
50592;BME280;36548;50.506;30.834;2023-04-19T05:00:19;99902.86;;;12.81;44.72
50592;BME280;36548;50.506;30.834;2023-04-19T05:01:30;99898.06;;;12.73;44.50
50592;BME280;36548;50.506;30.834;2023-04-19T05:02:40;99902.34;;;12.53;44.52
50592;BME280;36548;50.506;30.834;2023-04-19T05:03:51;99903.44;;;12.50;45.27
50592;BME280;36548;50.506;30.834;2023-04-19T05:05:00;99914.20;;;12.50;45.33
50592;BME280;36548;50.506;30.834;2023-04-19T05:06:09;99908.45;;;12.55;44.86
50592;BME280;36548;50.506;30.834;2023-04-19T05:07:26;99904.58;;;12.70;45.21
50592;BME280;36548;50.506;30.834;2023-04-19T05:08:35;99907.73;;;12.64;45.07
50592;BME280;36548;50.506;30.834;2023-04-19T05:09:50;99905.80;;;12.66;45.00
50592;BME280;36548;50.506;30.834;2023-04-19T05:11:03;99911.19;;;12.66;45.22
50592;BME280;36548;50.506;30.834;2023-04-19T05:12:12;99912.53;;;12.72;44.77
50592;BME280;36548;50.506;30.834;2023-04-19T05:13:22;99901.38;;;12.76;44.98
50592;BME280;36548;50.506;30.834;2023-04-19T05:14:38;99904.81;;;13.01;44.95
50592;BME280;36548;50.506;30.834;2023-04-19T05:15:48;99903.84;;;13.02;44.97
50592;BME280;36548;50.506;30.834;2023-04-19T05:17:05;99893.87;;;13.25;44.70
50592;BME280;36548;50.506;30.834;2023-04-19T05:18:15;99904.55;;;13.16;44.36
50592;BME280;36548;50.506;30.834;2023-04-19T05:19:24;99901.24;;;13.23;44.59
50592;BME280;36548;50.506;30.834;2023-04-19T05:20:40;99902.72;;;13.39;44.27
50592;BME280;36548;50.506;30.834;2023-04-19T05:21:54;99903.20;;;13.44;44.48
50592;BME280;36548;50.506;30.834;2023-04-19T05:23:09;99898.97;;;13.62;43.46
50592;BME280;36548;50.506;30.834;2023-04-19T05:24:19;99902.81;;;13.49;43.73
50592;BME280;36548;50.506;30.834;2023-04-19T05:25:35;99896.80;;;13.45;43.82
50592;BME280;36548;50.506;30.834;2023-04-19T05:26:44;99907.72;;;13.43;43.78
50592;BME280;36548;50.506;30.834;2023-04-19T05:28:00;99906.45;;;13.59;43.96
50592;BME280;36548;50.506;30.834;2023-04-19T05:29:13;99907.10;;;13.51;43.96
50592;BME280;36548;50.506;30.834;2023-04-19T05:30:30;99913.34;;;13.52;43.52
50592;BME280;36548;50.506;30.834;2023-04-19T05:31:39;99911.65;;;13.39;43.97
50592;BME280;36548;50.506;30.834;2023-04-19T05:33:05;99913.85;;;13.34;44.03
50592;BME280;36548;50.506;30.834;2023-04-19T05:34:15;99911.16;;;13.34;43.75
50592;BME280;36548;50.506;30.834;2023-04-19T05:35:26;99919.86;;;13.26;44.14
50592;BME280;36548;50.506;30.834;2023-04-19T05:36:37;99920.09;;;13.35;44.23
50592;BME280;36548;50.506;30.834;2023-04-19T05:37:52;99908.20;;;13.49;44.34
50592;BME280;36548;50.506;30.834;2023-04-19T05:39:01;99909.95;;;13.38;44.37
50592;BME280;36548;50.506;30.834;2023-04-19T05:40:17;99910.73;;;13.61;44.57
50592;BME280;36548;50.506;30.834;2023-04-19T05:41:27;99914.31;;;13.62;44.63
50592;BME280;36548;50.506;30.834;2023-04-19T05:42:35;99910.20;;;13.79;44.76
50592;BME280;36548;50.506;30.834;2023-04-19T05:43:57;99901.58;;;14.18;44.79
50592;BME280;36548;50.506;30.834;2023-04-19T05:45:09;99912.44;;;14.27;44.43
50592;BME280;36548;50.506;30.834;2023-04-19T05:46:20;99905.77;;;14.53;44.19
50592;BME280;36548;50.506;30.834;2023-04-19T05:47:35;99900.59;;;14.92;43.95
50592;BME280;36548;50.506;30.834;2023-04-19T05:49:03;99907.89;;;15.01;43.83
50592;BME280;36548;50.506;30.834;2023-04-19T05:50:18;99903.88;;;15.36;42.92
50592;BME280;36548;50.506;30.834;2023-04-19T05:51:32;99905.90;;;15.44;43.13
50592;BME280;36548;50.506;30.834;2023-04-19T05:52:48;99900.86;;;15.90;43.15
50592;BME280;36548;50.506;30.834;2023-04-19T05:53:57;99902.28;;;16.04;41.91
50592;BME280;36548;50.506;30.834;2023-04-19T05:55:07;99906.80;;;16.23;41.53
50592;BME280;36548;50.506;30.834;2023-04-19T05:56:22;99909.61;;;16.50;41.67
50592;BME280;36548;50.506;30.834;2023-04-19T05:57:31;99909.52;;;16.42;40.46
50592;BME280;36548;50.506;30.834;2023-04-19T05:58:46;99905.31;;;16.67;41.01
50592;BME280;36548;50.506;30.834;2023-04-19T05:59:55;99908.14;;;16.76;40.17
50592;BME280;36548;50.506;30.834;2023-04-19T06:01:10;99902.08;;;17.01;39.26
50592;BME280;36548;50.506;30.834;2023-04-19T06:02:20;99907.19;;;17.04;39.52
50592;BME280;36548;50.506;30.834;2023-04-19T06:03:29;99909.69;;;17.26;39.32
50592;BME280;36548;50.506;30.834;2023-04-19T06:04:44;99905.86;;;17.46;38.17
50592;BME280;36548;50.506;30.834;2023-04-19T06:05:54;99912.63;;;17.32;37.94
50592;BME280;36548;50.506;30.834;2023-04-19T06:07:09;99911.52;;;17.25;38.58
50592;BME280;36548;50.506;30.834;2023-04-19T06:08:23;99912.09;;;17.29;38.23
50592;BME280;36548;50.506;30.834;2023-04-19T06:09:35;99913.22;;;16.98;38.23
50592;BME280;36548;50.506;30.834;2023-04-19T06:10:51;99895.34;;;17.06;38.41
50592;BME280;36548;50.506;30.834;2023-04-19T06:12:03;99903.05;;;17.10;38.88
50592;BME280;36548;50.506;30.834;2023-04-19T06:13:19;99898.58;;;17.19;38.61
50592;BME280;36548;50.506;30.834;2023-04-19T06:14:28;99906.66;;;17.29;38.51
50592;BME280;36548;50.506;30.834;2023-04-19T06:15:37;99895.91;;;17.37;38.01
50592;BME280;36548;50.506;30.834;2023-04-19T06:16:59;99901.68;;;17.52;37.68
50592;BME280;36548;50.506;30.834;2023-04-19T06:18:08;99899.81;;;17.52;37.98
50592;BME280;36548;50.506;30.834;2023-04-19T06:19:17;99899.59;;;17.64;37.54
50592;BME280;36548;50.506;30.834;2023-04-19T06:20:27;99899.72;;;17.44;37.71